Time;durP1;ratioP1;P1;durP2;ratioP2;P2;SDS_P1;SDS_P2;PMS_P1;PMS_P2;Temp;Humidity;BMP_temperature;BMP_pressure;BME280_temperature;BME280_humidity;BME280_pressure;Samples;Min_cycle;Max_cycle;Signal;HPM_P1;HPM_P2
2021/01/30 00:00:13;;;;;;;25.17;19.57;;;5.50;88.60;;;;;;4995707;28;20026;-66
2021/01/30 00:02:38;;;;;;;26.20;19.93;;;5.50;88.60;;;;;;4995798;28;20026;-67
2021/01/30 00:05:06;;;;;;;26.80;19.43;;;5.50;88.70;;;;;;4995854;28;20026;-66
2021/01/30 00:07:32;;;;;;;27.10;20.87;;;5.50;88.70;;;;;;4995463;28;20101;-66
2021/01/30 00:09:58;;;;;;;24.13;19.07;;;5.50;88.60;;;;;;4995686;28;20037;-66
2021/01/30 00:12:24;;;;;;;28.80;21.23;;;5.50;88.50;;;;;;4995629;28;20038;-66
2021/01/30 00:14:49;;;;;;;36.83;26.10;;;5.50;88.50;;;;;;4995596;28;20027;-66
2021/01/30 00:17:15;;;;;;;29.57;22.27;;;5.50;88.70;;;;;;4995397;28;20378;-67
2021/01/30 00:19:44;;;;;;;26.67;20.33;;;5.50;89.00;;;;;;4995572;28;20049;-67
2021/01/30 00:22:13;;;;;;;28.13;20.87;;;5.50;89.20;;;;;;4995065;28;20034;-67
2021/01/30 00:24:42;;;;;;;27.23;20.37;;;5.50;88.90;;;;;;4995321;28;20027;-66
2021/01/30 00:27:11;;;;;;;23.07;18.53;;;5.50;89.00;;;;;;4995293;28;20481;-67
2021/01/30 00:29:37;;;;;;;26.77;19.23;;;5.50;88.80;;;;;;4995032;28;20023;-67
2021/01/30 00:32:03;;;;;;;24.07;18.90;;;5.50;88.70;;;;;;4993998;28;20391;-66
2021/01/30 00:34:30;;;;;;;24.47;18.30;;;5.50;88.80;;;;;;4995338;28;20042;-66
2021/01/30 00:37:00;;;;;;;33.47;22.20;;;5.50;88.70;;;;;;4995263;28;20053;-67
2021/01/30 00:39:25;;;;;;;32.27;23.50;;;5.50;88.60;;;;;;4994806;28;20034;-67
2021/01/30 00:41:51;;;;;;;25.17;18.93;;;5.50;88.50;;;;;;4995094;28;20467;-66
2021/01/30 00:44:17;;;;;;;26.47;20.70;;;5.50;88.70;;;;;;4995442;28;20026;-66
2021/01/30 00:46:48;;;;;;;25.67;20.60;;;5.50;88.60;;;;;;4995280;28;20022;-66
2021/01/30 00:49:14;;;;;;;27.40;20.03;;;5.50;88.50;;;;;;4995004;28;20026;-66
2021/01/30 00:51:39;;;;;;;28.37;20.23;;;5.50;88.60;;;;;;4994811;28;20034;-66
2021/01/30 00:54:05;;;;;;;25.83;19.83;;;5.50;88.60;;;;;;4995278;28;20026;-66
2021/01/30 00:56:31;;;;;;;28.23;22.00;;;5.50;88.50;;;;;;4994803;28;20395;-66
2021/01/30 00:58:56;;;;;;;26.00;19.37;;;5.50;88.50;;;;;;4994566;28;20026;-67
2021/01/30 01:01:22;;;;;;;27.83;21.83;;;5.50;88.70;;;;;;4994295;28;20030;-67
2021/01/30 01:03:48;;;;;;;24.60;20.07;;;5.50;88.90;;;;;;4994661;28;20076;-66
2021/01/30 01:06:14;;;;;;;27.13;20.40;;;5.50;88.80;;;;;;4994595;28;20069;-67
2021/01/30 01:08:39;;;;;;;25.43;19.70;;;5.50;89.40;;;;;;4993091;28;20033;-67
2021/01/30 01:11:05;;;;;;;25.67;19.90;;;5.50;88.70;;;;;;4994286;28;20040;-66
2021/01/30 01:13:31;;;;;;;26.10;20.33;;;5.50;88.60;;;;;;4994552;28;20463;-66
2021/01/30 01:15:57;;;;;;;50.70;35.63;;;5.50;88.50;;;;;;4994485;28;20076;-66
2021/01/30 01:18:23;;;;;;;43.10;28.13;;;5.50;88.50;;;;;;4994241;28;20027;-66
2021/01/30 01:20:49;;;;;;;47.80;33.97;;;5.50;88.40;;;;;;4994250;28;20132;-66
2021/01/30 01:23:15;;;;;;;37.83;26.20;;;5.50;88.60;;;;;;4993948;28;20511;-67
2021/01/30 01:25:40;;;;;;;33.67;26.57;;;5.50;88.80;;;;;;4994169;28;20033;-67
2021/01/30 01:28:06;;;;;;;34.93;25.20;;;5.50;88.70;;;;;;4994349;28;20026;-66
2021/01/30 01:30:32;;;;;;;31.30;23.40;;;5.50;88.70;;;;;;4994375;28;20029;-66
2021/01/30 01:32:59;;;;;;;32.37;23.00;;;5.50;88.60;;;;;;4994144;28;20025;-66
2021/01/30 01:35:30;;;;;;;29.23;21.67;;;5.50;88.50;;;;;;4994014;28;20081;-66
2021/01/30 01:37:56;;;;;;;28.33;21.77;;;5.50;88.50;;;;;;4993942;28;20041;-67
2021/01/30 01:40:37;;;;;;;27.00;19.43;;;5.50;88.60;;;;;;4994158;28;20037;-66
2021/01/30 01:43:06;;;;;;;27.67;18.83;;;5.50;88.60;;;;;;4994149;28;20462;-66
2021/01/30 01:45:32;;;;;;;24.97;19.83;;;5.50;88.40;;;;;;4993913;28;20026;-66
2021/01/30 01:48:02;;;;;;;28.10;21.17;;;5.50;88.40;;;;;;4993690;28;20029;-67
2021/01/30 01:50:44;;;;;;;26.87;20.60;;;5.50;88.30;;;;;;4993797;28;20030;-66
2021/01/30 01:53:33;;;;;;;22.75;18.13;;;5.50;88.30;;;;;;4993917;28;20053;-66
2021/01/30 01:56:05;;;;;;;24.23;18.57;;;5.50;88.50;;;;;;4993959;28;20038;-66
2021/01/30 01:58:34;;;;;;;27.47;18.23;;;5.50;88.50;;;;;;4991671;28;20069;-67
2021/01/30 02:01:00;;;;;;;23.17;17.67;;;5.50;88.40;;;;;;4991059;28;20486;-67
2021/01/30 02:03:27;;;;;;;22.80;17.67;;;5.50;88.40;;;;;;4990949;28;20023;-67
2021/01/30 02:05:53;;;;;;;21.17;16.37;;;5.50;88.40;;;;;;4992022;28;20368;-67
2021/01/30 02:08:20;;;;;;;21.50;16.27;;;5.50;88.40;;;;;;4993417;28;20018;-66
2021/01/30 02:10:52;;;;;;;22.17;16.03;;;5.50;88.40;;;;;;4993589;28;20037;-67
2021/01/30 02:13:32;;;;;;;22.53;15.97;;;5.50;88.50;;;;;;4994462;28;20052;-66
2021/01/30 02:16:26;;;;;;;19.57;15.70;;;5.50;88.40;;;;;;4997991;28;20356;-66
2021/01/30 02:19:19;;;;;;;19.73;15.17;;;5.50;88.40;;;;;;4989699;28;20046;-66
2021/01/30 02:22:06;;;;;;;20.33;15.60;;;5.50;88.30;;;;;;4997285;28;20065;-66
2021/01/30 02:24:58;;;;;;;20.53;15.13;;;5.50;88.30;;;;;;4997552;28;20297;-66
2021/01/30 02:27:38;;;;;;;20.92;15.73;;;5.50;88.40;;;;;;4997402;28;20433;-66
2021/01/30 02:30:04;;;;;;;22.77;15.30;;;5.40;88.30;;;;;;4997150;28;20311;-66
2021/01/30 02:32:51;;;;;;;20.83;15.23;;;5.40;88.50;;;;;;4997314;28;20475;-66
2021/01/30 02:35:44;;;;;;;20.03;15.23;;;5.40;88.50;;;;;;4996869;28;20390;-66
2021/01/30 02:38:24;;;;;;;22.65;15.25;;;5.40;88.30;;;;;;4997338;28;20027;-66
2021/01/30 02:40:56;;;;;;;18.97;14.83;;;5.40;88.30;;;;;;4997428;28;20026;-66
2021/01/30 02:43:28;;;;;;;20.48;15.40;;;5.40;88.20;;;;;;4996796;28;20062;-66
2021/01/30 02:46:04;;;;;;;20.70;15.03;;;5.40;88.10;;;;;;4996810;28;20479;-66
2021/01/30 02:48:36;;;;;;;21.20;15.33;;;5.40;88.20;;;;;;4996829;28;20030;-68
2021/01/30 02:51:04;;;;;;;21.75;16.20;;;5.40;88.50;;;;;;4997316;28;20057;-68
2021/01/30 02:53:34;;;;;;;22.97;16.17;;;5.40;88.50;;;;;;4997096;28;20029;-68
2021/01/30 02:56:02;;;;;;;21.57;15.17;;;5.40;88.40;;;;;;4997312;28;20054;-66
2021/01/30 02:58:46;;;;;;;21.60;17.23;;;5.40;88.30;;;;;;4996632;28;20026;-68
2021/01/30 03:01:12;;;;;;;22.63;16.90;;;5.40;88.30;;;;;;4996885;28;20026;-68
2021/01/30 03:03:39;;;;;;;22.77;16.70;;;5.40;88.40;;;;;;4996754;28;20073;-66
2021/01/30 03:06:38;;;;;;;23.63;16.93;;;5.40;88.90;;;;;;4996777;28;20487;-68
2021/01/30 03:09:20;;;;;;;23.17;17.00;;;5.40;88.80;;;;;;4992591;28;20061;-66
2021/01/30 03:12:11;;;;;;;22.00;15.63;;;5.40;88.70;;;;;;4996443;28;20517;-68
2021/01/30 03:14:47;;;;;;;22.33;15.43;;;5.40;88.50;;;;;;4996453;28;20360;-66
2021/01/30 03:17:14;;;;;;;22.93;15.23;;;5.50;88.50;;;;;;4996790;28;20423;-66
2021/01/30 03:19:40;;;;;;;21.17;15.00;;;5.40;88.40;;;;;;4996707;28;20494;-66
2021/01/30 03:22:10;;;;;;;21.80;15.17;;;5.40;88.30;;;;;;4996494;28;20038;-66
2021/01/30 03:24:45;;;;;;;19.90;14.40;;;5.40;88.80;;;;;;4996156;28;20470;-68
2021/01/30 03:27:21;;;;;;;19.93;15.03;;;5.40;88.70;;;;;;4996552;28;20413;-68
2021/01/30 03:29:48;;;;;;;18.50;14.13;;;5.40;88.90;;;;;;4996500;28;20027;-66
2021/01/30 03:32:15;;;;;;;19.77;13.53;;;5.40;89.00;;;;;;4996306;28;20379;-66
2021/01/30 03:34:40;;;;;;;19.07;13.90;;;5.40;89.00;;;;;;4996227;28;20041;-66
2021/01/30 03:37:06;;;;;;;19.17;14.13;;;5.40;88.90;;;;;;4996569;28;20030;-66
2021/01/30 03:39:32;;;;;;;20.07;12.67;;;5.30;88.90;;;;;;4996315;28;20387;-66
2021/01/30 03:41:57;;;;;;;19.10;11.87;;;5.30;89.10;;;;;;4996185;28;20026;-66
2021/01/30 03:44:23;;;;;;;19.13;12.83;;;5.30;89.00;;;;;;4996195;28;20101;-66
2021/01/30 03:46:49;;;;;;;19.07;12.93;;;5.40;88.90;;;;;;4995745;28;20023;-66
2021/01/30 03:49:15;;;;;;;20.40;12.97;;;5.30;88.80;;;;;;4996185;28;20030;-66
2021/01/30 03:51:40;;;;;;;18.57;12.70;;;5.40;88.70;;;;;;4996268;28;20027;-66
2021/01/30 03:54:06;;;;;;;19.47;12.63;;;5.40;88.60;;;;;;4996055;28;20383;-66
2021/01/30 03:56:31;;;;;;;20.40;13.00;;;5.40;88.50;;;;;;4995965;28;20026;-66
2021/01/30 03:58:57;;;;;;;17.80;12.83;;;5.40;88.50;;;;;;4995831;28;20030;-66
2021/01/30 04:01:30;;;;;;;18.97;13.37;;;5.40;88.40;;;;;;4995652;28;20033;-66
2021/01/30 04:03:56;;;;;;;22.33;14.30;;;5.40;88.50;;;;;;4995888;28;20026;-66
2021/01/30 04:06:22;;;;;;;17.83;13.27;;;5.40;88.60;;;;;;4995881;28;20101;-66
2021/01/30 04:08:47;;;;;;;21.13;16.17;;;5.40;88.70;;;;;;4995668;28;20114;-66
2021/01/30 04:11:13;;;;;;;22.13;15.60;;;5.40;88.70;;;;;;4995687;28;20038;-66
2021/01/30 04:13:39;;;;;;;19.33;14.13;;;5.40;89.30;;;;;;4995949;28;20073;-66
2021/01/30 04:16:05;;;;;;;19.47;14.23;;;5.40;88.60;;;;;;4995492;28;20422;-66
2021/01/30 04:18:30;;;;;;;19.23;14.13;;;5.40;88.50;;;;;;4995413;28;20029;-67
2021/01/30 04:20:56;;;;;;;19.70;12.93;;;5.40;88.70;;;;;;4995596;28;20141;-66
2021/01/30 04:23:22;;;;;;;20.33;13.27;;;5.40;88.50;;;;;;4995306;28;20057;-66
2021/01/30 04:25:48;;;;;;;19.67;12.97;;;5.40;88.40;;;;;;4995656;28;20101;-66
2021/01/30 04:28:13;;;;;;;18.23;13.80;;;5.40;88.40;;;;;;4995508;28;20034;-66
2021/01/30 04:30:39;;;;;;;20.67;13.77;;;5.40;88.50;;;;;;4995404;28;20015;-66
2021/01/30 04:33:05;;;;;;;19.23;13.47;;;5.40;88.70;;;;;;4995148;28;20058;-66
2021/01/30 04:35:36;;;;;;;19.13;13.13;;;5.40;88.60;;;;;;4994910;28;20030;-66
2021/01/30 04:38:03;;;;;;;17.23;12.03;;;5.40;88.60;;;;;;4994862;28;20049;-68
2021/01/30 04:40:41;;;;;;;16.47;12.13;;;5.40;88.60;;;;;;4994945;28;20029;-66
2021/01/30 04:43:34;;;;;;;17.00;11.73;;;5.40;88.80;;;;;;4995256;28;20033;-66
2021/01/30 04:46:12;;;;;;;15.13;11.07;;;5.40;88.60;;;;;;4994836;28;20027;-68
2021/01/30 04:49:10;;;;;;;19.10;10.87;;;5.40;89.00;;;;;;4995214;28;20406;-66
2021/01/30 04:51:47;;;;;;;16.43;10.50;;;5.40;88.60;;;;;;4992001;28;20507;-68
2021/01/30 04:54:19;;;;;;;15.90;10.27;;;5.40;88.40;;;;;;4994650;28;20549;-68
2021/01/30 04:57:00;;;;;;;17.43;11.00;;;5.40;88.50;;;;;;4994700;28;20383;-66
2021/01/30 05:00:00;;;;;;;13.40;9.47;;;5.40;88.50;;;;;;4994532;28;20384;-66
2021/01/30 05:02:33;;;;;;;14.93;10.70;;;5.40;88.60;;;;;;4995231;28;20038;-68
2021/01/30 05:05:00;;;;;;;14.77;10.37;;;5.40;88.50;;;;;;4994904;28;20022;-68
2021/01/30 05:07:38;;;;;;;14.37;10.27;;;5.40;88.50;;;;;;4994498;28;20081;-68
2021/01/30 05:10:28;;;;;;;15.23;10.50;;;5.40;88.40;;;;;;4994519;28;20027;-68
2021/01/30 05:13:01;;;;;;;15.43;10.83;;;5.40;88.30;;;;;;4994538;28;20034;-68
2021/01/30 05:15:32;;;;;;;15.75;9.90;;;5.40;88.50;;;;;;4994548;28;20030;-68
2021/01/30 05:18:12;;;;;;;14.60;10.90;;;5.40;89.00;;;;;;4994547;28;20052;-68
2021/01/30 05:20:43;;;;;;;15.27;10.40;;;5.40;88.80;;;;;;4994217;28;20042;-68
2021/01/30 05:23:11;;;;;;;13.93;10.23;;;5.40;88.50;;;;;;4994382;28;20026;-68
2021/01/30 05:25:37;;;;;;;13.00;9.77;;;5.40;88.40;;;;;;4994646;28;20455;-68
2021/01/30 05:28:21;;;;;;;12.77;10.43;;;5.40;88.40;;;;;;4994295;28;20105;-68
2021/01/30 05:31:10;;;;;;;14.33;11.00;;;5.40;88.60;;;;;;4994082;28;20109;-68
2021/01/30 05:34:01;;;;;;;14.77;10.00;;;5.40;88.70;;;;;;4994133;28;20034;-68
2021/01/30 05:36:42;;;;;;;13.13;9.80;;;5.40;88.60;;;;;;4994435;28;20053;-68
2021/01/30 05:39:23;;;;;;;12.97;10.00;;;5.40;88.50;;;;;;4993817;28;20022;-68
2021/01/30 05:42:11;;;;;;;16.37;9.50;;;5.40;88.60;;;;;;4994134;28;20030;-68
2021/01/30 05:44:48;;;;;;;14.47;9.33;;;5.40;88.60;;;;;;4993868;28;20018;-68
2021/01/30 05:47:18;;;;;;;13.93;8.57;;;5.40;88.50;;;;;;4993788;28;20057;-68
2021/01/30 05:50:05;;;;;;;14.03;8.37;;;5.30;88.40;;;;;;4993754;28;20061;-68
2021/01/30 05:52:36;;;;;;;13.33;8.07;;;5.30;88.50;;;;;;4993753;28;20368;-68
2021/01/30 05:55:03;;;;;;;11.43;8.43;;;5.30;88.30;;;;;;4993796;28;20023;-68
2021/01/30 05:57:28;;;;;;;11.40;8.70;;;5.40;88.40;;;;;;4993967;28;20360;-68
2021/01/30 05:59:57;;;;;;;12.70;8.67;;;5.40;88.40;;;;;;4993819;28;20037;-68
2021/01/30 06:02:26;;;;;;;13.60;8.80;;;5.40;88.40;;;;;;4993489;28;20109;-68
2021/01/30 06:04:51;;;;;;;14.30;9.30;;;5.40;88.40;;;;;;4993700;28;20371;-68
2021/01/30 06:07:30;;;;;;;12.27;8.80;;;5.40;88.50;;;;;;4993753;28;20030;-68
2021/01/30 06:09:56;;;;;;;13.47;9.60;;;5.40;88.70;;;;;;4993866;28;20026;-68
2021/01/30 06:12:36;;;;;;;11.47;8.77;;;5.30;88.60;;;;;;4993527;28;20031;-68
2021/01/30 06:15:13;;;;;;;12.80;9.20;;;5.30;88.60;;;;;;4993828;28;20497;-68
2021/01/30 06:17:39;;;;;;;14.87;9.53;;;5.30;88.50;;;;;;4993861;28;20050;-68
2021/01/30 06:20:25;;;;;;;15.10;10.23;;;5.40;88.40;;;;;;4993670;28;20062;-66
2021/01/30 06:23:10;;;;;;;14.53;9.87;;;5.40;88.40;;;;;;4993500;28;20027;-68
2021/01/30 06:25:38;;;;;;;16.80;10.80;;;5.40;88.50;;;;;;4993548;28;20058;-68
2021/01/30 06:28:19;;;;;;;17.60;10.07;;;5.40;88.30;;;;;;4993404;28;20019;-71
2021/01/30 06:30:46;;;;;;;15.33;9.90;;;5.40;88.30;;;;;;4993744;28;20030;-65
2021/01/30 06:33:30;;;;;;;13.23;9.43;;;5.40;88.30;;;;;;4993666;28;20065;-68
2021/01/30 06:36:08;;;;;;;12.40;8.93;;;5.40;88.20;;;;;;4993366;28;20062;-69
2021/01/30 06:38:43;;;;;;;13.70;9.80;;;5.40;88.10;;;;;;4993334;28;20033;-68
2021/01/30 06:41:30;;;;;;;13.47;9.83;;;5.40;88.10;;;;;;4993070;28;20061;-68
2021/01/30 06:44:27;;;;;;;17.77;9.70;;;5.40;88.10;;;;;;4993399;28;20035;-68
2021/01/30 06:47:11;;;;;;;13.20;9.17;;;5.40;88.10;;;;;;4993366;28;20034;-68
2021/01/30 06:49:37;;;;;;;12.83;9.47;;;5.40;88.00;;;;;;4994320;28;20023;-68
2021/01/30 06:52:27;;;;;;;14.93;9.83;;;5.40;88.00;;;;;;4993315;28;20092;-68
2021/01/30 06:55:05;;;;;;;13.97;9.50;;;5.40;88.10;;;;;;4992778;28;20035;-68
2021/01/30 06:57:37;;;;;;;12.13;9.20;;;5.40;88.00;;;;;;4993117;28;20030;-68
2021/01/30 07:00:20;;;;;;;14.60;9.90;;;5.40;88.30;;;;;;4995266;28;20034;-68
2021/01/30 07:02:51;;;;;;;;;;;5.40;88.40;;;;;;4996024;28;20471;-68
2021/01/30 07:05:57;;;;;;;15.70;9.30;;;5.40;88.30;;;;;;4996784;28;19910;-68
2021/01/30 07:08:42;;;;;;;13.40;8.80;;;5.50;88.10;;;;;;4991102;28;20101;-68
2021/01/30 07:11:46;;;;;;;10.80;8.30;;;5.40;88.00;;;;;;4996675;28;20038;-68
2021/01/30 07:14:35;;;;;;;10.97;8.83;;;5.50;88.10;;;;;;4996858;28;20080;-69
2021/01/30 07:17:28;;;;;;;11.10;8.20;;;5.40;88.10;;;;;;4996915;28;20394;-68
2021/01/30 07:20:24;;;;;;;12.60;8.82;;;5.50;88.00;;;;;;4996035;28;20030;-69
2021/01/30 07:22:59;;;;;;;15.60;8.70;;;5.50;88.10;;;;;;4996530;28;20037;-69
2021/01/30 07:26:03;;;;;;;11.60;7.97;;;5.50;88.00;;;;;;4996306;28;20026;-69
2021/01/30 07:28:53;;;;;;;14.93;8.73;;;5.50;88.00;;;;;;4980642;28;20045;-68
2021/01/30 07:31:45;;;;;;;12.73;8.67;;;5.50;88.10;;;;;;4995624;28;20042;-69
2021/01/30 07:34:17;;;;;;;13.63;8.88;;;5.40;88.10;;;;;;4994974;28;20030;-70
2021/01/30 07:37:06;;;;;;;15.73;9.33;;;5.50;88.10;;;;;;4994060;28;20497;-69
2021/01/30 07:39:45;;;;;;;13.20;8.33;;;5.50;88.00;;;;;;4991680;28;20095;-67
2021/01/30 07:42:10;;;;;;;16.07;9.17;;;5.50;87.90;;;;;;4992272;28;20386;-68
2021/01/30 07:44:47;;;;;;;14.27;9.27;;;5.50;87.70;;;;;;4993588;28;20105;-65
2021/01/30 07:47:22;;;;;;;16.40;9.90;;;5.60;87.80;;;;;;4992706;28;20037;-68
2021/01/30 07:49:54;;;;;;;12.13;9.43;;;5.60;87.90;;;;;;4992716;28;20109;-67
2021/01/30 07:52:25;;;;;;;15.23;10.00;;;5.60;87.80;;;;;;4992597;28;20038;-67
2021/01/30 07:54:54;;;;;;;12.50;9.13;;;5.60;87.80;;;;;;4993806;28;20027;-67
2021/01/30 07:57:57;;;;;;;15.37;10.57;;;5.60;87.70;;;;;;4995268;28;20387;-67
2021/01/30 08:00:41;;;;;;;13.23;10.43;;;5.70;87.80;;;;;;4994513;28;20038;-67
2021/01/30 08:03:28;;;;;;;14.60;11.27;;;5.70;87.60;;;;;;4994781;28;20027;-67
2021/01/30 08:06:16;;;;;;;14.70;10.87;;;5.70;87.60;;;;;;4994658;28;20482;-67
2021/01/30 08:08:54;;;;;;;17.40;10.80;;;5.80;88.20;;;;;;4994456;28;20046;-67
2021/01/30 08:11:55;;;;;;;16.37;11.90;;;5.80;87.60;;;;;;4993456;28;20057;-67
2021/01/30 08:14:26;;;;;;;18.17;12.40;;;5.80;87.60;;;;;;4992779;28;20046;-67
2021/01/30 08:16:58;;;;;;;17.60;11.87;;;5.90;88.00;;;;;;4994840;28;20177;-68
2021/01/30 08:20:01;;;;;;;16.03;12.37;;;5.90;88.20;;;;;;4994907;28;20026;-66
2021/01/30 08:22:32;;;;;;;20.33;12.98;;;5.90;87.80;;;;;;4995234;28;20043;-68
2021/01/30 08:25:05;;;;;;;17.03;13.43;;;6.00;87.80;;;;;;4995220;28;20550;-68
2021/01/30 08:27:37;;;;;;;19.45;13.20;;;6.00;87.70;;;;;;4995301;28;20050;-67
2021/01/30 08:30:11;;;;;;;16.52;13.00;;;6.00;87.50;;;;;;4994944;28;20064;-67
2021/01/30 08:32:40;;;;;;;19.37;14.23;;;6.00;87.50;;;;;;4995095;28;20039;-67
2021/01/30 08:35:21;;;;;;;21.93;15.43;;;6.00;87.50;;;;;;4995118;28;20061;-67
2021/01/30 08:38:07;;;;;;;20.37;15.00;;;6.10;87.70;;;;;;4994756;28;20031;-67
2021/01/30 08:40:51;;;;;;;21.63;15.30;;;6.00;88.40;;;;;;4994949;28;20092;-67
2021/01/30 08:43:25;;;;;;;22.23;16.40;;;6.10;88.20;;;;;;4995084;28;20056;-67
2021/01/30 08:45:51;;;;;;;24.97;16.27;;;6.10;87.80;;;;;;4994773;28;20369;-67
2021/01/30 08:48:17;;;;;;;22.87;15.87;;;6.10;88.40;;;;;;4995025;28;20033;-67
2021/01/30 08:50:48;;;;;;;24.43;16.93;;;6.10;89.10;;;;;;4994788;28;20027;-67
2021/01/30 08:53:23;;;;;;;25.67;17.40;;;6.10;88.80;;;;;;4994486;28;20066;-67
2021/01/30 08:55:53;;;;;;;26.97;18.03;;;6.20;88.60;;;;;;4994639;28;20070;-67
2021/01/30 08:58:37;;;;;;;26.57;16.27;;;6.20;88.30;;;;;;4994633;28;20094;-67
2021/01/30 09:01:07;;;;;;;19.73;12.40;;;6.20;88.20;;;;;;4994642;28;20022;-67
2021/01/30 09:03:44;;;;;;;15.27;11.33;;;6.20;88.10;;;;;;4994729;28;20045;-67
2021/01/30 09:06:38;;;;;;;17.77;11.10;;;6.20;87.90;;;;;;4994690;28;20031;-67
2021/01/30 09:09:20;;;;;;;16.93;11.80;;;6.30;87.80;;;;;;4994535;28;20037;-67
2021/01/30 09:11:47;;;;;;;16.77;11.40;;;6.30;87.70;;;;;;4994747;28;20046;-67
2021/01/30 09:14:18;;;;;;;15.60;11.50;;;6.30;87.60;;;;;;4994567;28;20027;-67
2021/01/30 09:16:58;;;;;;;17.67;12.50;;;6.30;87.50;;;;;;4994621;28;20034;-67
2021/01/30 09:19:33;;;;;;;16.87;11.77;;;6.30;87.50;;;;;;4994327;28;20034;-67
2021/01/30 09:22:09;;;;;;;17.13;13.20;;;6.40;87.50;;;;;;4994285;28;20054;-67
2021/01/30 09:25:00;;;;;;;17.90;12.20;;;6.40;87.30;;;;;;4994367;28;20598;-67
2021/01/30 09:27:33;;;;;;;17.13;13.37;;;6.40;87.10;;;;;;4994219;28;20057;-67
2021/01/30 09:30:18;;;;;;;18.77;14.50;;;6.50;87.00;;;;;;4994203;28;20022;-67
2021/01/30 09:32:46;;;;;;;21.13;13.33;;;6.50;87.00;;;;;;4994173;28;20038;-67
2021/01/30 09:35:22;;;;;;;19.87;13.80;;;6.50;86.90;;;;;;4994189;28;20022;-67
2021/01/30 09:37:48;;;;;;;19.57;14.57;;;6.50;86.90;;;;;;4993942;28;20027;-67
2021/01/30 09:40:29;;;;;;;18.47;13.47;;;6.50;86.80;;;;;;4994223;28;20097;-67
2021/01/30 09:43:08;;;;;;;17.73;14.17;;;6.50;86.80;;;;;;4994003;28;20383;-67
2021/01/30 09:45:35;;;;;;;15.27;11.97;;;6.60;87.20;;;;;;4993824;28;20026;-67
2021/01/30 09:48:09;;;;;;;16.90;12.97;;;6.60;87.00;;;;;;4993744;28;20022;-67
2021/01/30 09:50:38;;;;;;;17.30;13.67;;;6.60;86.80;;;;;;4994155;28;20109;-67
2021/01/30 09:53:08;;;;;;;15.33;11.90;;;6.60;86.80;;;;;;4993770;28;20511;-67
2021/01/30 09:55:35;;;;;;;14.63;10.53;;;6.60;86.60;;;;;;4993779;28;20065;-67
2021/01/30 09:58:08;;;;;;;13.50;8.33;;;6.70;86.60;;;;;;4994051;28;20030;-67
2021/01/30 10:00:40;;;;;;;10.33;7.40;;;6.70;86.50;;;;;;4993942;28;20034;-67
2021/01/30 10:03:17;;;;;;;7.30;5.50;;;6.70;86.10;;;;;;4993512;28;20037;-67
2021/01/30 10:05:53;;;;;;;10.10;6.00;;;6.80;85.90;;;;;;4993828;28;20026;-69
2021/01/30 10:08:33;;;;;;;9.73;5.93;;;6.80;85.70;;;;;;4993589;28;20033;-66
2021/01/30 10:11:04;;;;;;;8.33;6.30;;;6.90;85.60;;;;;;4993440;28;20547;-67
2021/01/30 10:13:31;;;;;;;9.97;7.10;;;7.00;85.50;;;;;;4993693;28;20042;-67
2021/01/30 10:15:57;;;;;;;9.23;6.63;;;7.00;85.10;;;;;;4993829;28;20030;-67
2021/01/30 10:18:25;;;;;;;14.10;6.87;;;7.10;85.00;;;;;;4993691;28;20026;-67
2021/01/30 10:20:56;;;;;;;10.07;6.57;;;7.20;85.40;;;;;;4993309;28;20046;-68
2021/01/30 10:23:45;;;;;;;8.80;6.73;;;7.20;85.00;;;;;;4993564;28;20031;-67
2021/01/30 10:26:25;;;;;;;10.67;8.13;;;7.30;84.70;;;;;;4993745;28;20035;-67
2021/01/30 10:28:58;;;;;;;12.83;8.80;;;7.30;84.70;;;;;;4993346;28;20038;-69
2021/01/30 10:31:36;;;;;;;14.70;9.85;;;7.30;84.60;;;;;;4993279;28;20057;-68
2021/01/30 10:34:17;;;;;;;12.83;9.50;;;7.30;84.80;;;;;;4990642;28;20073;-67
2021/01/30 10:36:53;;;;;;;12.07;8.60;;;7.30;84.70;;;;;;4994650;28;20034;-67
2021/01/30 10:39:20;;;;;;;10.87;8.77;;;7.30;84.40;;;;;;4995866;28;20022;-67
2021/01/30 10:41:46;;;;;;;15.67;9.67;;;7.30;84.50;;;;;;4997239;28;20022;-67
2021/01/30 10:44:20;;;;;;;12.07;9.63;;;7.30;84.40;;;;;;4997234;28;20545;-67
2021/01/30 10:46:46;;;;;;;11.77;9.50;;;7.30;84.40;;;;;;4997102;28;20023;-67
2021/01/30 10:49:28;;;;;;;13.77;10.33;;;7.30;84.30;;;;;;4997024;28;20061;-67
2021/01/30 10:52:21;;;;;;;13.20;9.38;;;7.40;84.30;;;;;;4997172;28;20022;-67
2021/01/30 10:54:47;;;;;;;11.55;9.00;;;7.50;84.20;;;;;;4997039;28;20422;-67
2021/01/30 10:57:19;;;;;;;11.80;8.87;;;7.50;83.90;;;;;;4996975;28;20030;-67
2021/01/30 10:59:54;;;;;;;12.40;9.97;;;7.60;83.90;;;;;;4996624;28;20034;-68
2021/01/30 11:02:35;;;;;;;11.80;8.80;;;7.70;83.90;;;;;;4996487;28;20032;-67
2021/01/30 11:05:03;;;;;;;11.73;9.33;;;7.90;83.60;;;;;;4996738;28;20034;-68
2021/01/30 11:07:42;;;;;;;13.73;9.90;;;8.00;83.50;;;;;;4996802;28;20030;-68
2021/01/30 11:10:30;;;;;;;16.70;8.70;;;8.10;83.50;;;;;;4996193;28;20467;-68
2021/01/30 11:13:22;;;;;;;10.53;8.03;;;8.10;83.10;;;;;;4996352;28;20038;-68
2021/01/30 11:15:49;;;;;;;11.07;8.03;;;8.30;82.80;;;;;;4996853;28;20120;-69
2021/01/30 11:18:26;;;;;;;13.67;7.73;;;8.30;82.30;;;;;;4996496;28;20133;-69
2021/01/30 11:20:53;;;;;;;9.87;7.30;;;8.40;82.20;;;;;;4996453;28;20050;-68
2021/01/30 11:23:48;;;;;;;12.27;7.20;;;8.50;81.80;;;;;;4996496;28;20460;-68
2021/01/30 11:26:17;;;;;;;10.70;7.83;;;8.60;81.90;;;;;;4987937;28;20038;-67
2021/01/30 11:28:44;;;;;;;9.27;7.43;;;8.60;81.40;;;;;;4995941;28;20579;-68
2021/01/30 11:31:11;;;;;;;11.50;7.70;;;8.70;81.40;;;;;;4996159;28;20427;-68
2021/01/30 11:33:37;;;;;;;13.83;8.37;;;8.90;81.10;;;;;;4996011;28;20513;-68
2021/01/30 11:36:04;;;;;;;11.53;7.90;;;;;;;;;;4995956;28;20027;-67
2021/01/30 11:38:30;;;;;;;10.87;8.40;;;8.90;81.10;;;;;;4996120;28;20027;-67
2021/01/30 11:40:58;;;;;;;10.20;8.20;;;9.10;80.90;;;;;;4995928;28;20097;-67
2021/01/30 11:43:25;;;;;;;9.13;7.90;;;9.20;80.30;;;;;;4995862;28;20479;-67
2021/01/30 11:45:52;;;;;;;12.00;9.00;;;9.30;79.90;;;;;;4994627;28;20395;-67
2021/01/30 11:48:19;;;;;;;11.27;9.10;;;9.30;79.50;;;;;;4995342;28;20048;-66
2021/01/30 11:50:46;;;;;;;11.90;9.43;;;9.30;79.40;;;;;;4993887;28;20063;-66
2021/01/30 11:53:15;;;;;;;14.67;9.23;;;9.20;79.40;;;;;;4993129;28;20466;-67
2021/01/30 11:55:41;;;;;;;12.00;9.43;;;9.20;79.50;;;;;;4993171;28;20435;-67
2021/01/30 11:58:07;;;;;;;12.47;9.87;;;9.20;79.50;;;;;;4995836;28;20053;-67
2021/01/30 12:00:33;;;;;;;15.67;9.53;;;9.30;79.80;;;;;;4996027;28;20480;-67
2021/01/30 12:03:00;;;;;;;13.47;9.53;;;9.40;79.60;;;;;;4995654;28;20045;-67
2021/01/30 12:05:26;;;;;;;11.43;9.80;;;9.50;79.60;;;;;;4995667;28;20037;-67
2021/01/30 12:07:52;;;;;;;11.97;9.53;;;9.60;79.20;;;;;;4995737;28;20030;-67
2021/01/30 12:10:18;;;;;;;13.17;9.90;;;9.70;79.10;;;;;;4995597;28;20026;-67
2021/01/30 12:12:45;;;;;;;11.40;9.57;;;9.80;79.10;;;;;;4995430;28;20046;-67
2021/01/30 12:15:11;;;;;;;14.90;9.87;;;;;;;;;;4995628;28;20025;-67
2021/01/30 12:17:39;;;;;;;15.27;10.83;;;;;;;;;;4995938;28;20109;-68
2021/01/30 12:20:06;;;;;;;14.73;11.02;;;;;;;;;;4995228;28;20109;-67
2021/01/30 12:22:32;;;;;;;16.77;10.90;;;9.90;78.70;;;;;;4995554;28;20018;-67
2021/01/30 12:24:58;;;;;;;15.67;11.90;;;;;;;;;;4995200;28;20391;-67
2021/01/30 12:27:25;;;;;;;14.25;11.73;;;10.20;77.50;;;;;;4995131;28;20539;-70
2021/01/30 12:29:51;;;;;;;14.27;11.07;;;10.40;77.80;;;;;;4995292;28;20015;-67
2021/01/30 12:32:18;;;;;;;14.40;11.00;;;10.40;78.10;;;;;;4995123;28;20390;-67
2021/01/30 12:34:44;;;;;;;14.40;10.80;;;10.50;78.60;;;;;;4995037;28;20109;-67
2021/01/30 12:37:10;;;;;;;16.87;12.50;;;10.60;78.00;;;;;;4995017;28;20105;-67
2021/01/30 12:39:35;;;;;;;14.65;11.45;;;10.60;77.20;;;;;;4995045;28;20466;-67
2021/01/30 12:42:02;;;;;;;17.23;11.52;;;10.60;77.10;;;;;;4995060;28;20054;-68
2021/01/30 12:44:27;;;;;;;15.20;11.77;;;10.60;76.70;;;;;;4995003;28;20363;-67
2021/01/30 12:46:53;;;;;;;15.73;11.82;;;10.60;77.00;;;;;;4994520;28;20037;-67
2021/01/30 12:49:20;;;;;;;15.50;12.43;;;10.50;77.10;;;;;;4994969;28;20062;-67
2021/01/30 12:51:46;;;;;;;17.87;13.37;;;10.40;77.60;;;;;;4994906;28;20065;-67
2021/01/30 12:54:15;;;;;;;18.45;16.05;;;10.40;78.20;;;;;;4994978;28;20522;-67
2021/01/30 12:56:41;;;;;;;24.00;16.87;;;10.20;77.30;;;;;;4994371;28;20054;-68
2021/01/30 12:59:06;;;;;;;23.47;19.27;;;10.00;77.90;;;;;;4994569;28;20058;-67
2021/01/30 13:01:32;;;;;;;26.53;20.33;;;9.80;78.90;;;;;;4994716;28;20022;-67
2021/01/30 13:03:58;;;;;;;27.50;20.87;;;9.70;79.60;;;;;;4994500;28;20088;-67
2021/01/30 13:06:24;;;;;;;22.77;19.57;;;9.50;79.80;;;;;;4994614;28;20109;-68
2021/01/30 13:08:50;;;;;;;25.77;21.17;;;9.50;80.70;;;;;;4994354;28;20035;-67
2021/01/30 13:11:17;;;;;;;29.10;21.53;;;9.50;80.10;;;;;;4994548;28;20118;-67